Flight Track Log - Related Links

Times and Time Zones

All times are in EDT time to prevent confusion due to time zone crossing. See the JIA2382 flight status page for this flight to view local times or setup timezone preferences in your user account.

Time Position Orientation Groundspeed Altitude Reporting Facility
EDT Latitude Longitude Course Direction KTS MPH feet Rate Location/Type
Wed 09:34:27 AM 35.1886 -80.9358 72° East 167 192 1,900  Level Atlanta Center
Wed 09:34:46 AM 35.1761 -80.9361 181° South 165 190 2,400 1,975 Climbing Atlanta Center
Wed 09:35:46 AM 35.1211 -80.8978 150° Southeast 237 273 4,500 2,033 Climbing Atlanta Center
Wed 09:36:00 AM 35.1000 -80.6476 90° East  Level FlightAware Approximate
Wed 09:36:47 AM 35.0900 -80.8253 118° Southeast 280 322 6,500  Level Atlanta Center
Wed 09:37:00 AM 35.1962 -80.5692 29° Northeast  Level FlightAware Approximate
Wed 09:37:44 AM 35.1172 -80.7531 65° Northeast 278 320 8,200  Level Atlanta Center
Wed 09:38:00 AM 35.3010 -80.4946 30° Northeast  Level FlightAware Approximate
Wed 09:38:44 AM 35.1608 -80.6700 57° Northeast 289 333 10,400  Level Atlanta Center
Wed 09:39:00 AM 35.3558 -80.3818 72° East  Level FlightAware Approximate
Wed 09:39:44 AM 35.2064 -80.5817 58° Northeast 300 345 12,500  Level Atlanta Center
Wed 09:41:55 AM 35.3067 -80.3872 58° Northeast 315 362 16,800 1,813 Climbing Washington Center
Wed 09:42:56 AM 35.3561 -80.2958 56° Northeast 315 362 18,300 1,462 Climbing Washington Center
Wed 09:43:54 AM 35.4039 -80.1992 59° Northeast 320 368 19,700 1,627 Climbing Washington Center
Wed 09:44:54 AM 35.4478 -80.0819 65° Northeast 332 382 21,500 1,450 Climbing Washington Center
Wed 09:45:54 AM 35.4772 -79.9664 73° East 337 388 22,600 744 Climbing Washington Center
Wed 09:46:55 AM 35.5108 -79.8456 71° East 352 405 23,000 197 Climbing Washington Center
Wed 09:47:56 AM 35.5425 -79.7172 73° East 375 432 23,000  Level Washington Center
Wed 09:48:54 AM 35.5575 -79.5825 82° East 387 445 23,000  Level Washington Center
Wed 09:49:55 AM 35.5619 -79.4475 88° East 397 457 23,000  Level Washington Center
Wed 09:50:56 AM 35.5706 -79.3075 86° East 402 463 23,000  Level Washington Center
Wed 09:51:53 AM 35.5747 -79.1697 88° East 402 463 23,000  Level Washington Center
Wed 09:52:54 AM 35.5808 -79.0322 87° East 402 463 23,000  Level Washington Center
Wed 09:53:55 AM 35.5867 -78.8944 87° East 402 463 23,000  Level Washington Center
Wed 09:54:56 AM 35.5928 -78.7542 87° East 402 463 23,000 -305 Level Washington Center
Wed 09:55:53 AM 35.5958 -78.6292 88° East 402 463 22,400 -1,714 Descending Washington Center
Wed 09:56:55 AM 35.6017 -78.4864 87° East 391 450 19,600 -2,361 Descending Washington Center
Wed 09:57:55 AM 35.6064 -78.3717 87° East 385 443 17,600 -2,269 Descending Washington Center
Wed 09:58:54 AM 35.6114 -78.2467 87° East 372 428 15,100 -2,370 Descending Washington Center
Wed 09:59:54 AM 35.6139 -78.1239 89° East 360 414 12,900 -2,132 Descending Washington Center
Wed 10:00:55 AM 35.6183 -78.0117 87° East 346 398 10,800 -1,918 Descending Washington Center
Wed 10:01:56 AM 35.6206 -77.9044 89° East 324 373 9,000 -1,765 Descending Washington Center
Wed 10:02:54 AM 35.6244 -77.8050 87° East 313 360 7,300 -1,714 Descending Washington Center
Wed 10:03:55 AM 35.6264 -77.7028 89° East 300 345 5,600 -1,686 Descending Washington Center
Wed 10:04:55 AM 35.6322 -77.6033 86° East 289 333 3,900 -1,550 Descending Washington Center
Wed 10:05:55 AM 35.6336 -77.5086 89° East 284 327 2,500 -793 Descending Washington Center
Wed 10:06:56 AM 35.6328 -77.4294 91° East 257 296 2,300 1,261 Descending Washington Center
Wed 10:07:54 AM 35.6297 -77.3553 93° East 232 267 5,000 2,793 Climbing Washington Center

Login

Don't have an account? Register now (free) for customized features, flight alerts, and more!